sensor_id;sensor_type;location;lat;lon;timestamp;P1;durP1;ratioP1;P2;durP2;ratioP2
2558;SDS011;1289;53.488;10.006;2023-10-19T00:00:46;11.47;;;9.27;;
2558;SDS011;1289;53.488;10.006;2023-10-19T00:03:14;11.43;;;9.73;;
2558;SDS011;1289;53.488;10.006;2023-10-19T00:05:41;10.80;;;9.77;;
2558;SDS011;1289;53.488;10.006;2023-10-19T00:08:07;13.53;;;11.07;;
2558;SDS011;1289;53.488;10.006;2023-10-19T00:10:40;11.37;;;10.17;;
2558;SDS011;1289;53.488;10.006;2023-10-19T00:13:08;17.53;;;11.00;;
2558;SDS011;1289;53.488;10.006;2023-10-19T00:15:38;16.40;;;10.80;;
2558;SDS011;1289;53.488;10.006;2023-10-19T00:18:05;12.17;;;10.60;;
2558;SDS011;1289;53.488;10.006;2023-10-19T00:20:45;13.67;;;11.00;;
2558;SDS011;1289;53.488;10.006;2023-10-19T00:23:16;11.83;;;10.37;;
2558;SDS011;1289;53.488;10.006;2023-10-19T00:25:49;13.40;;;10.87;;
2558;SDS011;1289;53.488;10.006;2023-10-19T00:28:16;18.97;;;13.30;;
2558;SDS011;1289;53.488;10.006;2023-10-19T00:30:45;13.20;;;10.73;;
2558;SDS011;1289;53.488;10.006;2023-10-19T00:33:14;12.57;;;11.20;;
2558;SDS011;1289;53.488;10.006;2023-10-19T00:35:45;13.13;;;10.47;;
2558;SDS011;1289;53.488;10.006;2023-10-19T00:38:22;15.70;;;12.43;;
2558;SDS011;1289;53.488;10.006;2023-10-19T00:41:04;13.10;;;11.33;;
2558;SDS011;1289;53.488;10.006;2023-10-19T00:43:32;12.90;;;11.13;;
2558;SDS011;1289;53.488;10.006;2023-10-19T00:46:02;14.50;;;11.47;;
2558;SDS011;1289;53.488;10.006;2023-10-19T00:48:30;13.40;;;11.17;;
2558;SDS011;1289;53.488;10.006;2023-10-19T00:50:58;13.20;;;11.50;;
2558;SDS011;1289;53.488;10.006;2023-10-19T00:53:34;12.83;;;11.53;;
2558;SDS011;1289;53.488;10.006;2023-10-19T00:56:02;13.30;;;11.70;;
2558;SDS011;1289;53.488;10.006;2023-10-19T00:58:32;13.17;;;10.90;;
2558;SDS011;1289;53.488;10.006;2023-10-19T01:01:03;12.57;;;11.07;;
2558;SDS011;1289;53.488;10.006;2023-10-19T01:03:32;14.37;;;11.33;;
2558;SDS011;1289;53.488;10.006;2023-10-19T01:06:02;12.40;;;11.17;;
2558;SDS011;1289;53.488;10.006;2023-10-19T01:08:35;12.23;;;10.97;;
2558;SDS011;1289;53.488;10.006;2023-10-19T01:11:06;16.93;;;12.03;;
2558;SDS011;1289;53.488;10.006;2023-10-19T01:13:36;14.83;;;12.17;;
2558;SDS011;1289;53.488;10.006;2023-10-19T01:16:04;12.80;;;11.50;;
2558;SDS011;1289;53.488;10.006;2023-10-19T01:18:30;14.20;;;11.37;;
2558;SDS011;1289;53.488;10.006;2023-10-19T01:20:58;14.70;;;11.80;;
2558;SDS011;1289;53.488;10.006;2023-10-19T01:23:29;13.87;;;11.97;;
2558;SDS011;1289;53.488;10.006;2023-10-19T01:25:57;12.90;;;11.43;;
2558;SDS011;1289;53.488;10.006;2023-10-19T01:28:33;12.57;;;11.20;;
2558;SDS011;1289;53.488;10.006;2023-10-19T01:31:13;16.57;;;12.20;;
2558;SDS011;1289;53.488;10.006;2023-10-19T01:33:42;14.17;;;12.50;;
2558;SDS011;1289;53.488;10.006;2023-10-19T01:36:10;13.27;;;11.87;;
2558;SDS011;1289;53.488;10.006;2023-10-19T01:38:53;15.37;;;11.40;;
2558;SDS011;1289;53.488;10.006;2023-10-19T01:41:20;14.70;;;12.57;;
2558;SDS011;1289;53.488;10.006;2023-10-19T01:43:49;12.97;;;11.57;;
2558;SDS011;1289;53.488;10.006;2023-10-19T01:46:16;13.83;;;11.13;;
2558;SDS011;1289;53.488;10.006;2023-10-19T01:48:49;13.10;;;11.70;;
2558;SDS011;1289;53.488;10.006;2023-10-19T01:51:19;13.27;;;11.97;;
2558;SDS011;1289;53.488;10.006;2023-10-19T01:53:46;14.93;;;12.53;;
2558;SDS011;1289;53.488;10.006;2023-10-19T01:56:13;15.33;;;13.27;;
2558;SDS011;1289;53.488;10.006;2023-10-19T01:58:41;12.83;;;11.47;;
2558;SDS011;1289;53.488;10.006;2023-10-19T02:01:08;13.77;;;12.27;;
2558;SDS011;1289;53.488;10.006;2023-10-19T02:03:44;17.80;;;12.13;;
2558;SDS011;1289;53.488;10.006;2023-10-19T02:06:10;14.90;;;11.90;;
2558;SDS011;1289;53.488;10.006;2023-10-19T02:08:43;13.53;;;12.13;;
2558;SDS011;1289;53.488;10.006;2023-10-19T02:11:10;16.50;;;12.00;;
2558;SDS011;1289;53.488;10.006;2023-10-19T02:13:44;13.27;;;11.70;;
2558;SDS011;1289;53.488;10.006;2023-10-19T02:16:11;13.10;;;11.60;;
2558;SDS011;1289;53.488;10.006;2023-10-19T02:18:40;14.33;;;12.83;;
2558;SDS011;1289;53.488;10.006;2023-10-19T02:21:07;12.73;;;11.43;;
2558;SDS011;1289;53.488;10.006;2023-10-19T02:23:37;17.30;;;12.13;;
2558;SDS011;1289;53.488;10.006;2023-10-19T02:26:03;14.17;;;12.10;;
2558;SDS011;1289;53.488;10.006;2023-10-19T02:28:30;16.57;;;12.13;;
2558;SDS011;1289;53.488;10.006;2023-10-19T02:31:03;13.40;;;11.70;;
2558;SDS011;1289;53.488;10.006;2023-10-19T02:33:40;14.07;;;11.57;;
2558;SDS011;1289;53.488;10.006;2023-10-19T02:36:06;15.50;;;12.93;;
2558;SDS011;1289;53.488;10.006;2023-10-19T02:38:38;14.53;;;11.30;;
2558;SDS011;1289;53.488;10.006;2023-10-19T02:41:04;13.30;;;11.90;;
2558;SDS011;1289;53.488;10.006;2023-10-19T02:43:31;16.47;;;13.17;;
2558;SDS011;1289;53.488;10.006;2023-10-19T02:45:58;17.17;;;11.80;;
2558;SDS011;1289;53.488;10.006;2023-10-19T02:48:26;14.03;;;11.13;;
2558;SDS011;1289;53.488;10.006;2023-10-19T02:50:51;14.90;;;12.77;;
2558;SDS011;1289;53.488;10.006;2023-10-19T02:53:18;16.30;;;12.40;;
2558;SDS011;1289;53.488;10.006;2023-10-19T02:55:44;12.00;;;10.80;;
2558;SDS011;1289;53.488;10.006;2023-10-19T02:58:12;18.50;;;12.87;;
2558;SDS011;1289;53.488;10.006;2023-10-19T03:00:38;13.00;;;11.70;;
2558;SDS011;1289;53.488;10.006;2023-10-19T03:03:05;13.47;;;11.60;;
2558;SDS011;1289;53.488;10.006;2023-10-19T03:05:33;15.93;;;11.33;;
2558;SDS011;1289;53.488;10.006;2023-10-19T03:08:01;15.73;;;12.23;;
2558;SDS011;1289;53.488;10.006;2023-10-19T03:10:31;14.80;;;11.47;;
2558;SDS011;1289;53.488;10.006;2023-10-19T03:13:07;15.03;;;12.57;;
2558;SDS011;1289;53.488;10.006;2023-10-19T03:15:33;14.10;;;12.63;;
2558;SDS011;1289;53.488;10.006;2023-10-19T03:18:00;15.27;;;13.47;;
2558;SDS011;1289;53.488;10.006;2023-10-19T03:20:26;15.13;;;12.70;;
2558;SDS011;1289;53.488;10.006;2023-10-19T03:22:54;16.40;;;13.87;;
2558;SDS011;1289;53.488;10.006;2023-10-19T03:25:27;17.53;;;13.10;;
2558;SDS011;1289;53.488;10.006;2023-10-19T03:28:12;20.90;;;13.60;;
2558;SDS011;1289;53.488;10.006;2023-10-19T03:30:41;18.67;;;13.67;;
2558;SDS011;1289;53.488;10.006;2023-10-19T03:33:08;16.97;;;14.40;;
2558;SDS011;1289;53.488;10.006;2023-10-19T03:35:35;19.10;;;14.53;;
2558;SDS011;1289;53.488;10.006;2023-10-19T03:38:04;16.83;;;12.90;;
2558;SDS011;1289;53.488;10.006;2023-10-19T03:40:40;16.77;;;14.10;;
2558;SDS011;1289;53.488;10.006;2023-10-19T03:43:11;17.27;;;13.93;;
2558;SDS011;1289;53.488;10.006;2023-10-19T03:45:42;17.60;;;14.13;;
2558;SDS011;1289;53.488;10.006;2023-10-19T03:48:15;17.20;;;14.80;;
2558;SDS011;1289;53.488;10.006;2023-10-19T03:50:49;18.37;;;14.40;;
2558;SDS011;1289;53.488;10.006;2023-10-19T03:53:18;18.77;;;14.00;;
2558;SDS011;1289;53.488;10.006;2023-10-19T03:55:46;16.13;;;14.27;;
2558;SDS011;1289;53.488;10.006;2023-10-19T03:58:15;16.57;;;14.77;;
2558;SDS011;1289;53.488;10.006;2023-10-19T04:00:42;19.30;;;15.00;;
2558;SDS011;1289;53.488;10.006;2023-10-19T04:03:10;15.77;;;14.10;;
2558;SDS011;1289;53.488;10.006;2023-10-19T04:05:36;23.77;;;15.70;;
2558;SDS011;1289;53.488;10.006;2023-10-19T04:08:05;17.27;;;14.10;;
2558;SDS011;1289;53.488;10.006;2023-10-19T04:10:39;17.47;;;14.10;;
2558;SDS011;1289;53.488;10.006;2023-10-19T04:13:10;19.67;;;15.10;;
2558;SDS011;1289;53.488;10.006;2023-10-19T04:15:37;16.57;;;14.40;;
2558;SDS011;1289;53.488;10.006;2023-10-19T04:18:04;19.43;;;14.80;;
2558;SDS011;1289;53.488;10.006;2023-10-19T04:20:36;17.83;;;14.50;;
2558;SDS011;1289;53.488;10.006;2023-10-19T04:23:19;16.17;;;14.00;;
2558;SDS011;1289;53.488;10.006;2023-10-19T04:25:48;21.20;;;14.60;;
2558;SDS011;1289;53.488;10.006;2023-10-19T04:28:15;20.50;;;14.87;;
2558;SDS011;1289;53.488;10.006;2023-10-19T04:30:45;18.17;;;16.17;;
2558;SDS011;1289;53.488;10.006;2023-10-19T04:33:13;18.83;;;16.00;;
2558;SDS011;1289;53.488;10.006;2023-10-19T04:35:43;17.53;;;15.73;;
2558;SDS011;1289;53.488;10.006;2023-10-19T04:38:11;21.43;;;15.50;;
2558;SDS011;1289;53.488;10.006;2023-10-19T04:40:37;17.60;;;14.77;;
2558;SDS011;1289;53.488;10.006;2023-10-19T04:43:05;19.77;;;15.47;;
2558;SDS011;1289;53.488;10.006;2023-10-19T04:45:32;22.60;;;15.23;;
2558;SDS011;1289;53.488;10.006;2023-10-19T04:47:58;18.37;;;15.70;;
2558;SDS011;1289;53.488;10.006;2023-10-19T04:50:27;17.37;;;14.20;;
2558;SDS011;1289;53.488;10.006;2023-10-19T04:52:54;19.00;;;16.13;;
2558;SDS011;1289;53.488;10.006;2023-10-19T04:55:21;20.60;;;16.90;;
2558;SDS011;1289;53.488;10.006;2023-10-19T04:57:48;18.60;;;15.40;;
2558;SDS011;1289;53.488;10.006;2023-10-19T05:00:16;18.93;;;15.17;;
2558;SDS011;1289;53.488;10.006;2023-10-19T05:02:45;20.13;;;16.20;;
2558;SDS011;1289;53.488;10.006;2023-10-19T05:05:12;24.40;;;16.47;;
2558;SDS011;1289;53.488;10.006;2023-10-19T05:07:42;18.47;;;16.10;;
2558;SDS011;1289;53.488;10.006;2023-10-19T05:10:08;19.00;;;15.87;;
2558;SDS011;1289;53.488;10.006;2023-10-19T05:12:36;20.40;;;16.07;;
2558;SDS011;1289;53.488;10.006;2023-10-19T05:15:03;23.90;;;16.50;;
2558;SDS011;1289;53.488;10.006;2023-10-19T05:17:32;22.23;;;16.43;;
2558;SDS011;1289;53.488;10.006;2023-10-19T05:19:58;21.57;;;16.07;;
2558;SDS011;1289;53.488;10.006;2023-10-19T05:22:25;19.07;;;15.90;;
2558;SDS011;1289;53.488;10.006;2023-10-19T05:24:54;21.57;;;15.80;;
2558;SDS011;1289;53.488;10.006;2023-10-19T05:27:21;19.80;;;14.97;;
2558;SDS011;1289;53.488;10.006;2023-10-19T05:29:48;18.97;;;15.97;;
2558;SDS011;1289;53.488;10.006;2023-10-19T05:32:16;19.13;;;16.10;;
2558;SDS011;1289;53.488;10.006;2023-10-19T05:34:44;18.70;;;15.83;;
2558;SDS011;1289;53.488;10.006;2023-10-19T05:37:11;18.50;;;15.07;;
2558;SDS011;1289;53.488;10.006;2023-10-19T05:39:37;20.67;;;16.33;;
2558;SDS011;1289;53.488;10.006;2023-10-19T05:42:04;21.23;;;15.53;;
2558;SDS011;1289;53.488;10.006;2023-10-19T05:44:31;18.10;;;15.23;;
2558;SDS011;1289;53.488;10.006;2023-10-19T05:46:58;19.10;;;15.90;;
2558;SDS011;1289;53.488;10.006;2023-10-19T05:49:24;16.30;;;14.37;;
2558;SDS011;1289;53.488;10.006;2023-10-19T05:51:53;24.40;;;16.40;;
2558;SDS011;1289;53.488;10.006;2023-10-19T05:54:19;16.70;;;14.53;;
2558;SDS011;1289;53.488;10.006;2023-10-19T05:56:48;23.50;;;15.67;;
2558;SDS011;1289;53.488;10.006;2023-10-19T05:59:15;18.40;;;15.23;;
2558;SDS011;1289;53.488;10.006;2023-10-19T06:01:41;19.90;;;15.83;;
2558;SDS011;1289;53.488;10.006;2023-10-19T06:04:11;21.23;;;16.17;;
2558;SDS011;1289;53.488;10.006;2023-10-19T06:06:38;18.77;;;15.07;;
2558;SDS011;1289;53.488;10.006;2023-10-19T06:09:07;18.57;;;15.50;;
2558;SDS011;1289;53.488;10.006;2023-10-19T06:11:34;18.37;;;16.37;;
2558;SDS011;1289;53.488;10.006;2023-10-19T06:14:03;20.90;;;15.83;;
2558;SDS011;1289;53.488;10.006;2023-10-19T06:16:32;19.77;;;16.73;;
2558;SDS011;1289;53.488;10.006;2023-10-19T06:18:58;21.10;;;15.23;;
2558;SDS011;1289;53.488;10.006;2023-10-19T06:21:25;25.83;;;17.50;;
2558;SDS011;1289;53.488;10.006;2023-10-19T06:23:52;17.77;;;15.73;;
2558;SDS011;1289;53.488;10.006;2023-10-19T06:26:21;21.30;;;15.97;;
2558;SDS011;1289;53.488;10.006;2023-10-19T06:28:48;18.53;;;16.53;;
2558;SDS011;1289;53.488;10.006;2023-10-19T06:31:16;22.00;;;16.07;;
2558;SDS011;1289;53.488;10.006;2023-10-19T06:33:42;18.60;;;14.97;;
2558;SDS011;1289;53.488;10.006;2023-10-19T06:36:09;16.97;;;14.63;;
2558;SDS011;1289;53.488;10.006;2023-10-19T06:38:35;20.93;;;16.80;;
2558;SDS011;1289;53.488;10.006;2023-10-19T06:41:09;18.67;;;15.30;;
2558;SDS011;1289;53.488;10.006;2023-10-19T06:43:37;20.10;;;15.50;;
2558;SDS011;1289;53.488;10.006;2023-10-19T06:46:04;18.90;;;15.90;;
2558;SDS011;1289;53.488;10.006;2023-10-19T06:48:31;19.77;;;16.27;;
2558;SDS011;1289;53.488;10.006;2023-10-19T06:50:57;18.40;;;15.63;;
2558;SDS011;1289;53.488;10.006;2023-10-19T06:53:25;21.80;;;16.47;;
2558;SDS011;1289;53.488;10.006;2023-10-19T06:55:52;20.33;;;15.07;;
2558;SDS011;1289;53.488;10.006;2023-10-19T06:58:20;20.33;;;16.00;;
2558;SDS011;1289;53.488;10.006;2023-10-19T07:00:48;22.00;;;15.80;;
2558;SDS011;1289;53.488;10.006;2023-10-19T07:03:21;18.77;;;15.33;;
2558;SDS011;1289;53.488;10.006;2023-10-19T07:05:48;19.33;;;16.63;;
2558;SDS011;1289;53.488;10.006;2023-10-19T07:08:15;21.70;;;17.17;;
2558;SDS011;1289;53.488;10.006;2023-10-19T07:10:44;21.10;;;14.83;;
2558;SDS011;1289;53.488;10.006;2023-10-19T07:13:10;24.77;;;16.93;;
2558;SDS011;1289;53.488;10.006;2023-10-19T07:15:37;22.07;;;16.90;;
2558;SDS011;1289;53.488;10.006;2023-10-19T07:18:08;19.40;;;15.33;;
2558;SDS011;1289;53.488;10.006;2023-10-19T07:20:34;19.87;;;16.80;;
2558;SDS011;1289;53.488;10.006;2023-10-19T07:23:03;22.77;;;16.70;;
2558;SDS011;1289;53.488;10.006;2023-10-19T07:25:35;23.63;;;15.90;;
2558;SDS011;1289;53.488;10.006;2023-10-19T07:28:08;18.50;;;14.90;;
2558;SDS011;1289;53.488;10.006;2023-10-19T07:30:34;20.93;;;17.07;;
2558;SDS011;1289;53.488;10.006;2023-10-19T07:33:02;24.40;;;18.50;;
2558;SDS011;1289;53.488;10.006;2023-10-19T07:35:33;19.70;;;16.03;;
2558;SDS011;1289;53.488;10.006;2023-10-19T07:38:02;24.60;;;16.27;;
2558;SDS011;1289;53.488;10.006;2023-10-19T07:40:30;19.73;;;16.43;;
2558;SDS011;1289;53.488;10.006;2023-10-19T07:42:57;18.40;;;16.27;;
2558;SDS011;1289;53.488;10.006;2023-10-19T07:45:23;21.77;;;17.07;;
2558;SDS011;1289;53.488;10.006;2023-10-19T07:47:50;20.27;;;16.07;;
2558;SDS011;1289;53.488;10.006;2023-10-19T07:50:17;21.77;;;16.17;;
2558;SDS011;1289;53.488;10.006;2023-10-19T07:52:45;19.83;;;16.50;;
2558;SDS011;1289;53.488;10.006;2023-10-19T07:55:13;20.03;;;16.40;;
2558;SDS011;1289;53.488;10.006;2023-10-19T07:57:40;19.87;;;15.93;;
2558;SDS011;1289;53.488;10.006;2023-10-19T08:00:08;29.93;;;18.43;;
2558;SDS011;1289;53.488;10.006;2023-10-19T08:02:38;20.43;;;16.30;;
2558;SDS011;1289;53.488;10.006;2023-10-19T08:05:07;21.33;;;17.10;;
2558;SDS011;1289;53.488;10.006;2023-10-19T08:07:34;20.70;;;17.50;;
2558;SDS011;1289;53.488;10.006;2023-10-19T08:10:03;22.73;;;17.00;;
2558;SDS011;1289;53.488;10.006;2023-10-19T08:12:31;20.53;;;17.50;;
2558;SDS011;1289;53.488;10.006;2023-10-19T08:14:58;19.70;;;17.00;;
2558;SDS011;1289;53.488;10.006;2023-10-19T08:17:25;20.20;;;16.13;;
2558;SDS011;1289;53.488;10.006;2023-10-19T08:19:52;28.13;;;16.70;;
2558;SDS011;1289;53.488;10.006;2023-10-19T08:22:18;21.90;;;16.77;;
2558;SDS011;1289;53.488;10.006;2023-10-19T08:24:45;18.93;;;15.00;;
2558;SDS011;1289;53.488;10.006;2023-10-19T08:27:13;21.20;;;17.00;;
2558;SDS011;1289;53.488;10.006;2023-10-19T08:29:39;20.30;;;17.40;;
2558;SDS011;1289;53.488;10.006;2023-10-19T08:32:06;21.30;;;16.73;;
2558;SDS011;1289;53.488;10.006;2023-10-19T08:34:33;19.63;;;16.60;;
2558;SDS011;1289;53.488;10.006;2023-10-19T08:37:01;25.33;;;17.23;;
2558;SDS011;1289;53.488;10.006;2023-10-19T08:39:27;23.17;;;17.40;;
2558;SDS011;1289;53.488;10.006;2023-10-19T08:42:01;29.73;;;18.73;;
2558;SDS011;1289;53.488;10.006;2023-10-19T08:44:30;19.60;;;16.53;;
2558;SDS011;1289;53.488;10.006;2023-10-19T08:46:56;24.60;;;17.87;;
2558;SDS011;1289;53.488;10.006;2023-10-19T08:49:24;25.13;;;20.57;;
2558;SDS011;1289;53.488;10.006;2023-10-19T08:51:52;25.40;;;19.93;;
2558;SDS011;1289;53.488;10.006;2023-10-19T08:54:20;22.80;;;17.87;;
2558;SDS011;1289;53.488;10.006;2023-10-19T08:56:46;21.90;;;17.50;;
2558;SDS011;1289;53.488;10.006;2023-10-19T08:59:13;22.30;;;17.93;;
2558;SDS011;1289;53.488;10.006;2023-10-19T09:01:43;23.90;;;19.23;;
2558;SDS011;1289;53.488;10.006;2023-10-19T09:04:10;25.60;;;17.97;;
2558;SDS011;1289;53.488;10.006;2023-10-19T09:06:36;25.47;;;18.33;;
2558;SDS011;1289;53.488;10.006;2023-10-19T09:09:07;20.97;;;17.33;;
2558;SDS011;1289;53.488;10.006;2023-10-19T09:11:38;22.13;;;18.50;;
2558;SDS011;1289;53.488;10.006;2023-10-19T09:14:05;21.93;;;16.83;;
2558;SDS011;1289;53.488;10.006;2023-10-19T09:16:32;24.03;;;18.80;;
2558;SDS011;1289;53.488;10.006;2023-10-19T09:19:00;21.13;;;17.30;;
2558;SDS011;1289;53.488;10.006;2023-10-19T09:21:27;23.90;;;20.43;;
2558;SDS011;1289;53.488;10.006;2023-10-19T09:23:55;23.40;;;19.33;;
2558;SDS011;1289;53.488;10.006;2023-10-19T09:26:23;24.63;;;18.00;;
2558;SDS011;1289;53.488;10.006;2023-10-19T09:28:51;22.90;;;17.87;;
2558;SDS011;1289;53.488;10.006;2023-10-19T09:31:19;25.07;;;17.80;;
2558;SDS011;1289;53.488;10.006;2023-10-19T09:33:46;22.70;;;17.37;;
2558;SDS011;1289;53.488;10.006;2023-10-19T09:36:15;23.50;;;18.40;;
2558;SDS011;1289;53.488;10.006;2023-10-19T09:38:44;22.53;;;19.87;;
2558;SDS011;1289;53.488;10.006;2023-10-19T09:41:13;21.27;;;18.07;;
2558;SDS011;1289;53.488;10.006;2023-10-19T09:43:41;25.53;;;19.03;;
2558;SDS011;1289;53.488;10.006;2023-10-19T09:46:10;23.43;;;18.27;;
2558;SDS011;1289;53.488;10.006;2023-10-19T09:48:38;26.67;;;19.53;;
2558;SDS011;1289;53.488;10.006;2023-10-19T09:51:07;24.37;;;19.70;;
2558;SDS011;1289;53.488;10.006;2023-10-19T09:53:36;28.00;;;19.37;;
2558;SDS011;1289;53.488;10.006;2023-10-19T09:56:06;24.60;;;19.40;;
2558;SDS011;1289;53.488;10.006;2023-10-19T09:58:34;25.17;;;19.80;;
2558;SDS011;1289;53.488;10.006;2023-10-19T10:01:03;24.57;;;19.27;;
2558;SDS011;1289;53.488;10.006;2023-10-19T10:03:43;25.93;;;21.00;;
2558;SDS011;1289;53.488;10.006;2023-10-19T10:06:10;24.43;;;18.97;;
2558;SDS011;1289;53.488;10.006;2023-10-19T10:08:40;24.40;;;20.37;;
2558;SDS011;1289;53.488;10.006;2023-10-19T10:11:16;25.80;;;20.60;;
2558;SDS011;1289;53.488;10.006;2023-10-19T10:13:47;26.23;;;19.73;;
2558;SDS011;1289;53.488;10.006;2023-10-19T10:16:18;26.00;;;20.93;;
2558;SDS011;1289;53.488;10.006;2023-10-19T10:18:47;23.10;;;18.47;;
2558;SDS011;1289;53.488;10.006;2023-10-19T10:21:16;21.40;;;19.10;;
2558;SDS011;1289;53.488;10.006;2023-10-19T10:23:45;22.97;;;19.83;;
2558;SDS011;1289;53.488;10.006;2023-10-19T10:26:13;22.73;;;20.27;;
2558;SDS011;1289;53.488;10.006;2023-10-19T10:28:40;22.00;;;18.47;;
2558;SDS011;1289;53.488;10.006;2023-10-19T10:31:08;25.30;;;20.60;;
2558;SDS011;1289;53.488;10.006;2023-10-19T10:33:41;23.40;;;20.80;;
2558;SDS011;1289;53.488;10.006;2023-10-19T10:36:11;24.83;;;21.10;;
2558;SDS011;1289;53.488;10.006;2023-10-19T10:38:40;25.03;;;20.17;;
2558;SDS011;1289;53.488;10.006;2023-10-19T10:41:10;23.47;;;20.67;;
2558;SDS011;1289;53.488;10.006;2023-10-19T10:43:49;23.37;;;20.63;;
2558;SDS011;1289;53.488;10.006;2023-10-19T10:46:17;25.10;;;20.43;;
2558;SDS011;1289;53.488;10.006;2023-10-19T10:48:44;23.33;;;19.30;;
2558;SDS011;1289;53.488;10.006;2023-10-19T10:51:17;21.77;;;19.10;;
2558;SDS011;1289;53.488;10.006;2023-10-19T10:53:46;24.50;;;20.33;;
2558;SDS011;1289;53.488;10.006;2023-10-19T10:56:15;24.87;;;21.13;;
2558;SDS011;1289;53.488;10.006;2023-10-19T10:58:42;24.63;;;21.70;;
2558;SDS011;1289;53.488;10.006;2023-10-19T11:01:08;23.33;;;20.50;;
2558;SDS011;1289;53.488;10.006;2023-10-19T11:03:35;27.77;;;20.93;;
2558;SDS011;1289;53.488;10.006;2023-10-19T11:06:03;24.17;;;19.70;;
2558;SDS011;1289;53.488;10.006;2023-10-19T11:08:32;31.23;;;21.57;;
2558;SDS011;1289;53.488;10.006;2023-10-19T11:11:01;25.73;;;20.30;;
2558;SDS011;1289;53.488;10.006;2023-10-19T11:13:31;24.27;;;20.40;;
2558;SDS011;1289;53.488;10.006;2023-10-19T11:16:00;21.80;;;19.50;;
2558;SDS011;1289;53.488;10.006;2023-10-19T11:18:29;24.10;;;19.77;;
2558;SDS011;1289;53.488;10.006;2023-10-19T11:20:57;24.00;;;20.60;;
2558;SDS011;1289;53.488;10.006;2023-10-19T11:23:36;28.60;;;21.57;;
2558;SDS011;1289;53.488;10.006;2023-10-19T11:26:03;22.80;;;19.50;;
2558;SDS011;1289;53.488;10.006;2023-10-19T11:28:31;25.70;;;20.80;;
2558;SDS011;1289;53.488;10.006;2023-10-19T11:31:11;23.70;;;19.83;;
2558;SDS011;1289;53.488;10.006;2023-10-19T11:33:41;24.00;;;20.60;;
2558;SDS011;1289;53.488;10.006;2023-10-19T11:36:09;27.37;;;21.23;;
2558;SDS011;1289;53.488;10.006;2023-10-19T11:38:38;23.63;;;21.20;;
2558;SDS011;1289;53.488;10.006;2023-10-19T11:41:05;23.90;;;20.30;;
2558;SDS011;1289;53.488;10.006;2023-10-19T11:43:34;28.13;;;22.47;;
2558;SDS011;1289;53.488;10.006;2023-10-19T11:46:01;24.33;;;19.17;;
2558;SDS011;1289;53.488;10.006;2023-10-19T11:48:29;24.00;;;21.10;;
2558;SDS011;1289;53.488;10.006;2023-10-19T11:50:56;21.87;;;19.27;;
2558;SDS011;1289;53.488;10.006;2023-10-19T11:53:24;23.20;;;19.93;;
2558;SDS011;1289;53.488;10.006;2023-10-19T11:55:50;24.13;;;20.83;;
2558;SDS011;1289;53.488;10.006;2023-10-19T11:58:17;23.97;;;21.10;;
2558;SDS011;1289;53.488;10.006;2023-10-19T12:00:45;25.40;;;20.43;;
2558;SDS011;1289;53.488;10.006;2023-10-19T12:03:11;23.43;;;19.43;;
2558;SDS011;1289;53.488;10.006;2023-10-19T12:05:38;25.30;;;20.40;;
2558;SDS011;1289;53.488;10.006;2023-10-19T12:08:05;23.07;;;20.00;;
2558;SDS011;1289;53.488;10.006;2023-10-19T12:10:32;22.93;;;19.10;;
2558;SDS011;1289;53.488;10.006;2023-10-19T12:13:00;26.40;;;20.60;;
2558;SDS011;1289;53.488;10.006;2023-10-19T12:15:29;24.67;;;19.83;;
2558;SDS011;1289;53.488;10.006;2023-10-19T12:17:58;23.40;;;18.80;;
2558;SDS011;1289;53.488;10.006;2023-10-19T12:20:24;27.13;;;20.50;;
2558;SDS011;1289;53.488;10.006;2023-10-19T12:22:51;23.33;;;20.80;;
2558;SDS011;1289;53.488;10.006;2023-10-19T12:25:19;29.37;;;21.33;;
2558;SDS011;1289;53.488;10.006;2023-10-19T12:27:53;25.03;;;21.13;;
2558;SDS011;1289;53.488;10.006;2023-10-19T12:30:20;23.00;;;19.20;;
2558;SDS011;1289;53.488;10.006;2023-10-19T12:32:47;26.53;;;20.47;;
2558;SDS011;1289;53.488;10.006;2023-10-19T12:35:17;25.87;;;21.50;;
2558;SDS011;1289;53.488;10.006;2023-10-19T12:37:49;25.90;;;21.80;;
2558;SDS011;1289;53.488;10.006;2023-10-19T12:40:17;27.73;;;21.20;;
2558;SDS011;1289;53.488;10.006;2023-10-19T12:42:53;24.10;;;21.33;;
2558;SDS011;1289;53.488;10.006;2023-10-19T12:45:20;27.13;;;21.53;;
2558;SDS011;1289;53.488;10.006;2023-10-19T12:47:47;25.53;;;20.73;;
2558;SDS011;1289;53.488;10.006;2023-10-19T12:50:13;27.60;;;23.67;;
2558;SDS011;1289;53.488;10.006;2023-10-19T12:52:42;28.47;;;22.70;;
2558;SDS011;1289;53.488;10.006;2023-10-19T12:55:09;28.73;;;22.47;;
2558;SDS011;1289;53.488;10.006;2023-10-19T12:57:36;29.30;;;22.90;;
2558;SDS011;1289;53.488;10.006;2023-10-19T13:00:03;25.00;;;21.43;;
2558;SDS011;1289;53.488;10.006;2023-10-19T13:02:49;25.50;;;20.47;;
2558;SDS011;1289;53.488;10.006;2023-10-19T13:05:15;26.47;;;22.60;;
2558;SDS011;1289;53.488;10.006;2023-10-19T13:07:44;27.60;;;22.00;;
2558;SDS011;1289;53.488;10.006;2023-10-19T13:10:11;30.67;;;21.33;;
2558;SDS011;1289;53.488;10.006;2023-10-19T13:12:38;31.30;;;21.20;;
2558;SDS011;1289;53.488;10.006;2023-10-19T13:15:06;23.67;;;21.03;;
2558;SDS011;1289;53.488;10.006;2023-10-19T13:17:38;29.83;;;19.93;;
2558;SDS011;1289;53.488;10.006;2023-10-19T13:20:07;29.80;;;22.20;;
2558;SDS011;1289;53.488;10.006;2023-10-19T13:22:44;25.20;;;21.67;;
2558;SDS011;1289;53.488;10.006;2023-10-19T13:25:11;26.77;;;21.70;;
2558;SDS011;1289;53.488;10.006;2023-10-19T13:27:42;26.80;;;20.70;;
2558;SDS011;1289;53.488;10.006;2023-10-19T13:30:09;23.43;;;20.47;;
2558;SDS011;1289;53.488;10.006;2023-10-19T13:32:39;28.23;;;21.90;;
2558;SDS011;1289;53.488;10.006;2023-10-19T13:35:06;27.37;;;21.00;;
2558;SDS011;1289;53.488;10.006;2023-10-19T13:37:34;25.60;;;21.13;;
2558;SDS011;1289;53.488;10.006;2023-10-19T13:40:03;26.27;;;21.60;;
2558;SDS011;1289;53.488;10.006;2023-10-19T13:42:31;30.30;;;21.87;;
2558;SDS011;1289;53.488;10.006;2023-10-19T13:44:59;27.13;;;21.47;;
2558;SDS011;1289;53.488;10.006;2023-10-19T13:47:26;27.90;;;20.83;;
2558;SDS011;1289;53.488;10.006;2023-10-19T13:49:53;26.77;;;19.83;;
2558;SDS011;1289;53.488;10.006;2023-10-19T13:52:19;21.90;;;19.57;;
2558;SDS011;1289;53.488;10.006;2023-10-19T13:54:46;27.47;;;20.77;;
2558;SDS011;1289;53.488;10.006;2023-10-19T13:57:14;23.90;;;19.67;;
2558;SDS011;1289;53.488;10.006;2023-10-19T13:59:40;25.63;;;21.27;;
2558;SDS011;1289;53.488;10.006;2023-10-19T14:02:07;23.97;;;19.23;;
2558;SDS011;1289;53.488;10.006;2023-10-19T14:04:33;22.50;;;18.00;;
2558;SDS011;1289;53.488;10.006;2023-10-19T14:07:00;24.33;;;20.30;;
2558;SDS011;1289;53.488;10.006;2023-10-19T14:09:27;24.97;;;19.83;;
2558;SDS011;1289;53.488;10.006;2023-10-19T14:11:56;25.63;;;20.47;;
2558;SDS011;1289;53.488;10.006;2023-10-19T14:14:24;23.67;;;20.03;;
2558;SDS011;1289;53.488;10.006;2023-10-19T14:16:52;24.40;;;20.33;;
2558;SDS011;1289;53.488;10.006;2023-10-19T14:19:18;27.37;;;19.97;;
2558;SDS011;1289;53.488;10.006;2023-10-19T14:21:45;22.60;;;20.03;;
2558;SDS011;1289;53.488;10.006;2023-10-19T14:24:13;24.83;;;20.60;;
2558;SDS011;1289;53.488;10.006;2023-10-19T14:26:39;23.33;;;20.63;;
2558;SDS011;1289;53.488;10.006;2023-10-19T14:29:07;25.10;;;21.67;;
2558;SDS011;1289;53.488;10.006;2023-10-19T14:31:35;24.33;;;19.53;;
2558;SDS011;1289;53.488;10.006;2023-10-19T14:34:02;26.47;;;20.53;;
2558;SDS011;1289;53.488;10.006;2023-10-19T14:36:29;23.50;;;18.77;;
2558;SDS011;1289;53.488;10.006;2023-10-19T14:38:56;27.73;;;19.70;;
2558;SDS011;1289;53.488;10.006;2023-10-19T14:41:23;27.50;;;21.03;;
2558;SDS011;1289;53.488;10.006;2023-10-19T14:43:49;24.20;;;20.23;;